Time;durP1;ratioP1;P1;durP2;ratioP2;P2;SDS_P1;SDS_P2;PMS_P1;PMS_P2;Temp;Humidity;BMP_temperature;BMP_pressure;BME280_temperature;BME280_humidity;BME280_pressure;Samples;Min_cycle;Max_cycle;Signal;HPM_P1;HPM_P2
2024/03/12 00:00:06;;;;;;;2.60;1.30;;;;;;;6.56;99.56;100510.97;5076118;28;20516;-65
2024/03/12 00:02:34;;;;;;;3.27;1.67;;;;;;;6.62;98.78;100513.63;5076066;28;20457;-65
2024/03/12 00:05:05;;;;;;;4.57;1.97;;;;;;;6.67;97.93;100506.31;5076032;28;20528;-64
2024/03/12 00:07:33;;;;;;;4.70;2.00;;;;;;;6.65;97.49;100513.88;5076256;28;20426;-65
2024/03/12 00:10:00;;;;;;;2.93;1.47;;;;;;;6.66;97.28;100517.38;5075985;28;20445;-67
2024/03/12 00:12:27;;;;;;;2.87;1.53;;;;;;;6.62;97.43;100509.06;5075946;28;20493;-66
2024/03/12 00:14:53;;;;;;;2.43;1.40;;;;;;;6.65;96.92;100513.88;5075534;28;20465;-65
2024/03/12 00:17:20;;;;;;;4.90;1.50;;;;;;;6.58;96.75;100518.75;5075839;28;20512;-66
2024/03/12 00:19:48;;;;;;;2.70;1.47;;;;;;;6.46;96.45;100519.09;5076107;28;20481;-66
2024/03/12 00:22:16;;;;;;;4.73;1.67;;;;;;;6.41;97.00;100523.66;5075265;28;21015;-65
2024/03/12 00:24:45;;;;;;;3.07;1.77;;;;;;;6.43;97.11;100521.53;5075485;28;20457;-65
2024/03/12 00:27:12;;;;;;;3.07;1.20;;;;;;;6.41;97.48;100526.34;5075346;28;20927;-65
2024/03/12 00:29:39;;;;;;;4.57;1.27;;;;;;;6.32;96.97;100520.72;5075582;28;20437;-65
2024/03/12 00:32:07;;;;;;;3.10;1.47;;;;;;;6.26;96.90;100511.88;5075250;28;21048;-65
2024/03/12 00:34:34;;;;;;;2.93;1.37;;;;;;;6.18;97.94;100520.50;5075432;28;20469;-65
2024/03/12 00:37:01;;;;;;;5.07;1.50;;;;;;;6.17;98.14;100518.91;5075129;28;20869;-65
2024/03/12 00:39:28;;;;;;;6.20;2.03;;;;;;;6.21;98.04;100511.09;5073800;28;20996;-65
2024/03/12 00:41:56;;;;;;;5.73;1.57;;;;;;;6.04;99.11;100514.09;5075316;28;20445;-66
2024/03/12 00:44:23;;;;;;;2.80;1.50;;;;;;;5.90;98.61;100513.03;5075056;28;20963;-67
2024/03/12 00:46:50;;;;;;;2.50;1.20;;;;;;;5.79;98.94;100509.53;5075678;28;20438;-66
2024/03/12 00:49:16;;;;;;;4.23;2.40;;;;;;;5.75;99.33;100509.25;5075247;28;20441;-66
2024/03/12 00:51:43;;;;;;;4.83;2.00;;;;;;;5.72;100.00;100509.00;5075078;28;20443;-65
2024/03/12 00:54:10;;;;;;;2.43;1.33;;;;;;;5.67;99.46;100507.13;5075121;28;20465;-66
2024/03/12 00:56:37;;;;;;;2.30;1.07;;;;;;;5.68;99.50;100507.94;5075077;28;20445;-66
2024/03/12 00:59:05;;;;;;;4.37;1.70;;;;;;;5.60;98.95;100506.59;5074979;28;20509;-66
2024/03/12 01:01:32;;;;;;;6.93;1.90;;;;;;;5.55;99.25;100506.59;5075015;28;20442;-66
2024/03/12 01:03:59;;;;;;;5.40;1.73;;;;;;;5.49;99.61;100508.50;5074849;28;20465;-66
2024/03/12 01:06:28;;;;;;;3.53;1.20;;;;;;;5.56;99.08;100513.56;5074624;28;20449;-65
2024/03/12 01:08:55;;;;;;;2.87;1.30;;;;;;;5.55;98.72;100512.78;5075328;28;20434;-65
2024/03/12 01:11:22;;;;;;;3.23;1.50;;;;;;;5.37;98.41;100507.16;5075144;28;20444;-65
2024/03/12 01:13:50;;;;;;;3.10;1.37;;;;;;;5.31;99.44;100507.16;5074715;28;20526;-65
2024/03/12 01:16:18;;;;;;;3.80;1.63;;;;;;;5.23;100.00;100509.56;5074664;28;20469;-65
2024/03/12 01:18:46;;;;;;;4.13;1.67;;;;;;;5.30;100.00;100513.56;5074240;28;21067;-65
2024/03/12 01:21:13;;;;;;;3.07;1.40;;;;;;;5.39;100.00;100513.03;5074525;28;20441;-65
2024/03/12 01:23:39;;;;;;;3.17;1.80;;;;;;;5.38;100.00;100509.56;5074172;28;20457;-65
2024/03/12 01:26:07;;;;;;;3.50;1.10;;;;;;;5.26;100.00;100511.69;5088222;22;20536;-70
2024/03/12 01:28:34;;;;;;;3.27;2.13;;;;;;;5.27;100.00;100514.13;5074394;28;20450;-70
2024/03/12 01:31:01;;;;;;;3.10;1.60;;;;;;;5.26;100.00;100509.00;5074046;28;20986;-70
2024/03/12 01:33:29;;;;;;;2.60;1.20;;;;;;;5.26;100.00;100509.81;5074206;28;20466;-70
2024/03/12 01:36:05;;;;;;;3.77;1.70;;;;;;;5.24;100.00;100517.34;5074272;28;20445;-70
2024/03/12 01:38:34;;;;;;;2.60;1.13;;;;;;;5.27;100.00;100510.63;5074168;28;20515;-70
2024/03/12 01:41:05;;;;;;;4.17;1.40;;;;;;;5.24;100.00;100511.97;5073912;28;20449;-70
2024/03/12 01:43:31;;;;;;;4.13;1.33;;;;;;;5.14;100.00;100519.22;5074044;28;20461;-70
2024/03/12 01:45:59;;;;;;;5.33;1.80;;;;;;;5.09;100.00;100513.81;5073774;28;20948;-70
2024/03/12 01:48:26;;;;;;;2.73;1.30;;;;;;;5.11;100.00;100525.09;5074073;28;20944;-70
2024/03/12 01:50:54;;;;;;;4.67;2.53;;;;;;;5.07;100.00;100517.56;5073510;28;20544;-70
2024/03/12 01:53:21;;;;;;;3.20;1.20;;;;;;;5.01;100.00;100518.66;5073902;28;20468;-70
2024/03/12 01:55:49;;;;;;;3.90;1.63;;;;;;;4.98;100.00;100513.00;5073840;28;20953;-70
2024/03/12 01:58:16;;;;;;;2.87;1.63;;;;;;;4.91;99.42;100515.13;5073808;28;20473;-70
2024/03/12 02:00:44;;;;;;;4.20;1.97;;;;;;;4.93;99.17;100518.34;5073823;28;20444;-70
2024/03/12 02:03:10;;;;;;;2.53;1.17;;;;;;;4.84;98.64;100511.91;5073820;28;20475;-70
2024/03/12 02:05:37;;;;;;;3.67;1.97;;;;;;;4.79;99.16;100512.69;5073773;28;20447;-70
2024/03/12 02:08:06;;;;;;;3.27;1.70;;;;;;;4.69;99.16;100513.47;5073766;28;20441;-70
2024/03/12 02:10:32;;;;;;;2.57;1.27;;;;;;;4.68;99.45;100509.16;5073688;28;20559;-70
2024/03/12 02:12:59;;;;;;;2.47;1.30;;;;;;;4.65;99.43;100512.38;5073370;28;20468;-70
2024/03/12 02:15:25;;;;;;;2.90;1.47;;;;;;;4.61;98.83;100508.59;5073631;28;20943;-70
2024/03/12 02:17:52;;;;;;;3.63;1.43;;;;;;;4.65;98.95;100517.75;5073572;28;20445;-71
2024/03/12 02:20:19;;;;;;;2.73;1.60;;;;;;;4.60;99.52;100520.38;5073501;28;20227;-70
2024/03/12 02:22:45;;;;;;;2.23;1.23;;;;;;;4.57;98.38;100512.09;5073431;28;20548;-68
2024/03/12 02:25:13;;;;;;;3.47;2.13;;;;;;;4.48;98.71;100526.00;5073146;28;20536;-68
2024/03/12 02:27:39;;;;;;;2.80;1.23;;;;;;;4.39;99.42;100516.84;5073431;28;20516;-68
2024/03/12 02:30:09;;;;;;;2.70;1.10;;;;;;;4.49;99.64;100521.44;5073082;28;20884;-69
2024/03/12 02:32:36;;;;;;;2.50;1.77;;;;;;;4.42;99.52;100518.97;5073088;28;20457;-67
2024/03/12 02:35:03;;;;;;;3.30;1.83;;;;;;;4.37;100.00;100515.47;5073090;28;20929;-67
2024/03/12 02:37:30;;;;;;;3.60;2.00;;;;;;;4.37;100.00;100521.63;5073123;28;20922;-67
2024/03/12 02:39:56;;;;;;;2.27;0.97;;;;;;;4.45;100.00;100515.78;5073176;28;21017;-67
2024/03/12 02:42:23;;;;;;;3.50;1.47;;;;;;;4.46;100.00;100512.03;5073270;28;20460;-67
2024/03/12 02:44:50;;;;;;;3.03;1.40;;;;;;;4.55;100.00;100512.31;5073377;28;20685;-67
2024/03/12 02:47:19;;;;;;;2.53;1.00;;;;;;;4.55;100.00;100515.00;5073036;28;20929;-68
2024/03/12 02:49:46;;;;;;;2.30;0.97;;;;;;;4.62;100.00;100512.09;5073530;28;20433;-68
2024/03/12 02:52:12;;;;;;;5.27;1.80;;;;;;;4.62;100.00;100515.59;5072904;28;20997;-69
2024/03/12 02:54:41;;;;;;;3.87;1.17;;;;;;;4.58;100.00;100519.84;5073208;28;20451;-68
2024/03/12 02:57:08;;;;;;;6.40;1.80;;;;;;;4.62;100.00;100518.25;5073140;28;20441;-68
2024/03/12 02:59:38;;;;;;;3.93;0.97;;;;;;;4.65;100.00;100523.13;5073037;28;20481;-69
2024/03/12 03:02:05;;;;;;;3.00;1.27;;;;;;;4.57;100.00;100512.09;5074452;28;20465;-68
2024/03/12 03:04:35;;;;;;;3.17;1.43;;;;;;;4.57;100.00;100528.19;5076906;28;20965;-68
2024/03/12 03:07:04;;;;;;;2.90;1.10;;;;;;;4.62;100.00;100518.25;5077179;28;20429;-68
2024/03/12 03:09:30;;;;;;;2.80;1.23;;;;;;;4.59;100.00;100521.47;5077315;28;20441;-68
2024/03/12 03:11:57;;;;;;;2.70;1.33;;;;;;;4.62;100.00;100529.00;5077028;28;20498;-68
2024/03/12 03:14:23;;;;;;;4.03;1.30;;;;;;;4.63;100.00;100522.56;5077147;28;20516;-69
2024/03/12 03:16:54;;;;;;;3.50;1.23;;;;;;;4.45;99.71;100531.88;5077058;28;20528;-70
2024/03/12 03:19:19;;;;;;;5.40;1.90;;;;;;;4.45;99.93;100531.06;5077329;28;20518;-69
2024/03/12 03:21:46;;;;;;;2.90;1.27;;;;;;;4.29;100.00;100532.84;5076557;28;20445;-70
2024/03/12 03:24:13;;;;;;;8.50;1.70;;;;;;;4.27;99.81;100535.81;5076818;28;20290;-67
2024/03/12 03:26:40;;;;;;;3.93;1.77;;;;;;;4.24;99.82;100541.69;5076825;28;20457;-67
2024/03/12 03:29:07;;;;;;;2.53;0.80;;;;;;;4.26;99.44;100538.75;5076735;28;20525;-69
2024/03/12 03:31:34;;;;;;;2.20;1.00;;;;;;;4.24;99.43;100538.19;5076807;28;20452;-68
2024/03/12 03:34:04;;;;;;;2.53;1.33;;;;;;;4.22;100.00;100538.47;5076290;28;20461;-70
2024/03/12 03:36:31;;;;;;;4.70;2.00;;;;;;;4.21;99.76;100539.53;5076554;28;20445;-70
2024/03/12 03:38:58;;;;;;;2.60;1.33;;;;;;;4.23;99.21;100540.06;5076496;28;20480;-70
2024/03/12 03:41:25;;;;;;;3.57;1.17;;;;;;;4.26;99.36;100539.56;5076542;28;20483;-71
2024/03/12 03:43:51;;;;;;;2.27;0.90;;;;;;;4.25;99.03;100535.28;5076354;28;20469;-71
2024/03/12 03:46:18;;;;;;;2.67;1.37;;;;;;;4.24;99.38;100540.88;5076513;28;20816;-71
2024/03/12 03:48:45;;;;;;;3.40;1.60;;;;;;;4.26;99.82;100544.91;5076311;28;20529;-71
2024/03/12 03:51:14;;;;;;;2.90;1.00;;;;;;;4.24;99.54;100549.72;5076000;28;20444;-71
2024/03/12 03:53:41;;;;;;;2.60;1.30;;;;;;;4.18;100.00;100550.75;5076174;28;20461;-71
2024/03/12 03:56:15;;;;;;;3.70;1.80;;;;;;;4.23;100.00;100553.47;5076223;28;20444;-71
2024/03/12 03:58:43;;;;;;;3.93;1.93;;;;;;;4.23;100.00;100550.00;5076136;28;20800;-71
2024/03/12 04:01:10;;;;;;;3.27;1.77;;;;;;;4.26;100.00;100547.59;5076157;28;20448;-70
2024/03/12 04:03:38;;;;;;;2.30;1.30;;;;;;;4.31;100.00;100552.19;5075696;28;21060;-70
2024/03/12 04:06:06;;;;;;;4.03;1.87;;;;;;;4.30;100.00;100554.06;5076062;28;20468;-70
2024/03/12 04:08:35;;;;;;;4.13;1.23;;;;;;;4.24;100.00;100552.41;5076014;28;20446;-70
2024/03/12 04:11:01;;;;;;;2.67;1.50;;;;;;;4.21;100.00;100563.66;5075685;28;20955;-70
2024/03/12 04:13:28;;;;;;;2.97;1.20;;;;;;;4.28;100.00;100558.84;5075963;28;20515;-70
2024/03/12 04:15:56;;;;;;;2.70;1.07;;;;;;;4.27;100.00;100567.16;5075807;28;20448;-70
2024/03/12 04:18:23;;;;;;;2.83;1.03;;;;;;;4.33;100.00;100562.63;5075870;28;20890;-70
2024/03/12 04:20:50;;;;;;;3.13;1.63;;;;;;;4.36;99.36;100576.34;5075710;28;20513;-70
2024/03/12 04:23:16;;;;;;;3.83;0.97;;;;;;;4.27;99.58;100576.03;5075586;28;21002;-70
2024/03/12 04:25:44;;;;;;;2.80;1.33;;;;;;;4.18;100.00;100574.09;5075544;28;20544;-70
2024/03/12 04:28:15;;;;;;;3.93;1.67;;;;;;;4.19;100.00;100576.50;5075322;28;20532;-71
2024/03/12 04:30:42;;;;;;;3.40;1.30;;;;;;;4.26;100.00;100576.28;5075408;28;20475;-70
2024/03/12 04:33:09;;;;;;;4.10;1.47;;;;;;;4.33;100.00;100581.41;5075462;28;20468;-70
2024/03/12 04:35:36;;;;;;;2.77;1.17;;;;;;;4.30;100.00;100585.44;5075216;28;20529;-71
2024/03/12 04:38:02;;;;;;;2.40;1.30;;;;;;;4.30;100.00;100586.22;5075493;28;20441;-69
2024/03/12 04:40:29;;;;;;;2.57;1.03;;;;;;;4.36;100.00;100586.25;5075461;28;20492;-69
2024/03/12 04:42:57;;;;;;;2.13;1.07;;;;;;;4.42;100.00;100591.38;5075367;28;20651;-70
2024/03/12 04:45:24;;;;;;;2.97;1.33;;;;;;;4.44;100.00;100588.47;5075514;28;20499;-68
2024/03/12 04:47:51;;;;;;;2.77;1.20;;;;;;;4.39;100.00;100588.44;5075179;28;20528;-69
2024/03/12 04:50:19;;;;;;;2.60;1.53;;;;;;;4.45;100.00;100590.88;5075340;28;20873;-69
2024/03/12 04:52:45;;;;;;;4.23;1.90;;;;;;;4.40;100.00;100592.72;5075142;28;20510;-69
2024/03/12 04:55:14;;;;;;;2.37;1.20;;;;;;;4.45;100.00;100595.44;5075207;28;20473;-69
2024/03/12 04:57:40;;;;;;;3.60;1.67;;;;;;;4.42;100.00;100595.94;5074993;28;20449;-69
2024/03/12 05:00:14;;;;;;;2.83;1.60;;;;;;;4.50;100.00;100596.25;5074734;28;21071;-69
2024/03/12 05:02:41;;;;;;;5.70;2.10;;;;;;;4.55;100.00;100596.28;5075097;28;20460;-69
2024/03/12 05:05:08;;;;;;;3.50;1.90;;;;;;;4.53;100.00;100605.66;5075628;28;20464;-69
2024/03/12 05:07:35;;;;;;;6.17;2.23;;;;;;;4.53;100.00;100603.78;5075299;28;20443;-69
2024/03/12 05:10:02;;;;;;;4.60;2.10;;;;;;;4.55;100.00;100606.19;5075006;28;20438;-69
2024/03/12 05:12:28;;;;;;;6.00;1.83;;;;;;;4.49;100.00;100604.56;5074938;28;20483;-69
2024/03/12 05:14:55;;;;;;;8.50;2.50;;;;;;;4.52;100.00;100602.19;5074816;28;20476;-68
2024/03/12 05:17:23;;;;;;;3.73;2.57;;;;;;;4.48;100.00;100611.00;5074829;28;20512;-69
2024/03/12 05:19:49;;;;;;;13.30;2.53;;;;;;;4.53;100.00;100617.19;5074957;28;21022;-69
2024/03/12 05:22:16;;;;;;;7.50;3.10;;;;;;;4.53;100.00;100619.88;5074494;28;20463;-69
2024/03/12 05:24:43;;;;;;;4.63;2.70;;;;;;;4.51;100.00;100613.16;5074054;28;20460;-69
2024/03/12 05:27:10;;;;;;;9.13;2.37;;;;;;;4.54;100.00;100612.63;5074537;28;20501;-69
2024/03/12 05:29:42;;;;;;;5.13;2.07;;;;;;;4.53;100.00;100619.06;5074194;28;20532;-69
2024/03/12 05:32:18;;;;;;;4.40;2.27;;;;;;;4.54;100.00;100612.63;5074442;28;20457;-69
2024/03/12 05:34:47;;;;;;;3.90;2.37;;;;;;;4.49;100.00;100609.94;5074219;28;20428;-69
2024/03/12 05:37:28;;;;;;;3.33;1.77;;;;;;;4.41;100.00;100621.16;5074102;28;20440;-69
2024/03/12 05:40:11;;;;;;;3.60;1.40;;;;;;;4.37;100.00;100623.53;5073603;28;20559;-69
2024/03/12 05:48:10;;;;;;;5.03;3.43;;;;;;;4.45;100.00;100622.25;5073994;28;20432;-69
2024/03/12 05:50:39;;;;;;;6.10;2.63;;;;;;;4.56;100.00;100623.94;5073992;28;20782;-69
2024/03/12 05:53:06;;;;;;;3.27;1.90;;;;;;;4.61;100.00;100629.31;5073762;28;20829;-69
2024/03/12 05:55:33;;;;;;;5.00;2.23;;;;;;;4.61;100.00;100632.00;5073740;28;20528;-69
2024/03/12 05:58:00;;;;;;;3.73;2.00;;;;;;;4.66;100.00;100632.03;5073654;28;20562;-69
2024/03/12 06:00:26;;;;;;;7.60;2.03;;;;;;;4.61;100.00;100632.00;5073526;28;20534;-69
2024/03/12 06:02:53;;;;;;;7.17;3.63;;;;;;;4.65;100.00;100643.81;5073634;28;20458;-69
2024/03/12 06:05:20;;;;;;;5.03;2.37;;;;;;;4.75;100.00;100638.50;5073554;28;20929;-69
2024/03/12 06:07:49;;;;;;;5.70;2.17;;;;;;;4.73;100.00;100646.00;5073742;28;20536;-69
2024/03/12 06:10:16;;;;;;;3.07;1.90;;;;;;;4.69;100.00;100650.28;5073663;28;20936;-69
2024/03/12 06:12:43;;;;;;;3.97;1.67;;;;;;;4.76;100.00;100658.09;5073604;28;20461;-69
2024/03/12 06:15:10;;;;;;;6.50;2.37;;;;;;;4.76;100.00;100658.91;5073607;28;20437;-69
2024/03/12 06:17:37;;;;;;;3.30;1.67;;;;;;;4.83;100.00;100661.38;5073692;28;20480;-69
2024/03/12 06:20:05;;;;;;;4.70;1.50;;;;;;;4.83;100.00;100669.41;5073580;28;20481;-68
2024/03/12 06:22:31;;;;;;;10.23;2.67;;;;;;;4.84;100.00;100667.53;5073531;28;20461;-68
2024/03/12 06:25:00;;;;;;;4.70;2.13;;;;;;;4.81;100.00;100664.28;5073719;28;20472;-68
2024/03/12 06:27:26;;;;;;;6.50;2.30;;;;;;;4.86;100.00;100668.88;5073406;28;20437;-69
2024/03/12 06:29:53;;;;;;;3.20;1.47;;;;;;;4.94;100.00;100667.56;5073465;28;20465;-69
2024/03/12 06:32:20;;;;;;;3.57;1.80;;;;;;;4.95;100.00;100664.63;5073336;28;20468;-69
2024/03/12 06:34:48;;;;;;;3.60;1.97;;;;;;;5.07;100.00;100672.47;5073499;28;20522;-69
2024/03/12 06:37:15;;;;;;;5.70;2.57;;;;;;;5.27;100.00;100682.50;5072818;28;20437;-69
2024/03/12 06:39:42;;;;;;;7.03;2.30;;;;;;;5.30;100.00;100682.75;5072843;28;20937;-69
2024/03/12 06:42:12;;;;;;;7.10;2.83;;;;;;;5.41;100.00;100685.50;5073407;28;20536;-69
2024/03/12 06:44:40;;;;;;;8.80;2.80;;;;;;;5.52;100.00;100684.44;5073422;28;20516;-69
2024/03/12 06:47:07;;;;;;;6.57;2.67;;;;;;;5.57;100.00;100687.13;5073289;28;20437;-69
2024/03/12 06:49:34;;;;;;;7.60;3.80;;;;;;;5.59;100.00;100690.38;5073294;28;20524;-70
2024/03/12 06:52:02;;;;;;;2.73;2.03;;;;;;;5.71;100.00;100688.25;5072908;28;21008;-70
2024/03/12 06:54:31;;;;;;;10.03;2.67;;;;;;;5.80;100.00;100681.28;5073238;28;20449;-70
2024/03/12 06:56:58;;;;;;;11.53;3.53;;;;;;;5.87;100.00;100690.97;5073294;28;20437;-70
2024/03/12 06:59:26;;;;;;;6.70;3.90;;;;;;;5.92;99.66;100688.31;5073203;28;20437;-70
2024/03/12 07:01:55;;;;;;;7.43;4.07;;;;;;;5.97;99.39;100693.69;5072984;28;20508;-71
2024/03/12 07:04:23;;;;;;;4.93;3.10;;;;;;;6.09;99.30;100693.44;5073202;28;20799;-71
2024/03/12 07:06:50;;;;;;;7.70;3.23;;;;;;;6.20;99.71;100701.25;5054918;28;20465;-70
2024/03/12 07:09:26;;;;;;;8.73;3.80;;;;;;;6.30;99.91;100701.22;5073060;28;20540;-69
2024/03/12 07:11:54;;;;;;;4.73;3.13;;;;;;;6.36;100.00;100690.47;5072947;28;20421;-72
2024/03/12 07:14:27;;;;;;;7.23;2.60;;;;;;;6.47;100.00;100695.59;5073004;28;20442;-71
2024/03/12 07:16:56;;;;;;;4.87;2.30;;;;;;;6.62;100.00;100702.00;5073072;28;20425;-71
2024/03/12 07:19:23;;;;;;;6.23;2.47;;;;;;;6.72;100.00;100708.19;5072948;28;20441;-71
2024/03/12 07:21:50;;;;;;;10.97;3.53;;;;;;;6.80;100.00;100704.94;5072876;28;20484;-71
2024/03/12 07:24:17;;;;;;;4.43;2.43;;;;;;;6.94;100.00;100704.38;5073059;28;20448;-71
2024/03/12 07:26:47;;;;;;;4.80;1.70;;;;;;;7.09;100.00;100707.03;5073181;28;20468;-71
2024/03/12 07:29:14;;;;;;;4.83;2.40;;;;;;;7.21;100.00;100709.38;5073163;28;20832;-71
2024/03/12 07:31:41;;;;;;;4.37;2.10;;;;;;;7.40;100.00;100715.00;5072849;28;20949;-71
2024/03/12 07:34:09;;;;;;;4.10;1.87;;;;;;;7.59;100.00;100716.75;5072707;28;20489;-71
2024/03/12 07:36:36;;;;;;;5.07;1.73;;;;;;;7.78;99.66;100713.41;5072884;28;20536;-71
2024/03/12 07:39:08;;;;;;;4.63;3.20;;;;;;;8.00;99.29;100713.00;5072525;28;20933;-71
2024/03/12 07:41:35;;;;;;;5.13;2.17;;;;;;;8.18;98.36;100714.22;5072530;28;20877;-72
2024/03/12 07:44:02;;;;;;;4.10;2.20;;;;;;;8.35;98.04;100712.75;5072492;28;20461;-72
2024/03/12 07:46:29;;;;;;;3.90;2.13;;;;;;;8.52;97.43;100723.16;5072571;28;20445;-72
2024/03/12 07:48:56;;;;;;;6.70;2.90;;;;;;;8.68;96.79;100723.03;5075202;28;20791;-72
2024/03/12 07:51:24;;;;;;;5.70;2.60;;;;;;;8.83;96.56;100723.66;5076145;28;20437;-71
2024/03/12 07:53:51;;;;;;;5.70;2.60;;;;;;;8.99;96.25;100726.22;5075924;28;21048;-71
2024/03/12 07:56:18;;;;;;;6.33;2.80;;;;;;;9.11;96.35;100723.91;5076268;28;20445;-70
2024/03/12 07:58:46;;;;;;;5.00;2.50;;;;;;;9.26;96.27;100725.66;5076255;28;20442;-70
2024/03/12 08:01:14;;;;;;;6.23;2.83;;;;;;;9.36;95.53;100720.13;5076079;28;20481;-70
2024/03/12 08:03:41;;;;;;;8.37;3.43;;;;;;;9.46;95.06;100728.09;5076068;28;20463;-71
2024/03/12 08:06:08;;;;;;;7.47;2.63;;;;;;;9.54;94.24;100726.66;5075694;28;20435;-72
2024/03/12 08:08:36;;;;;;;5.00;3.07;;;;;;;9.62;93.31;100734.13;5076063;28;20451;-72
2024/03/12 08:11:04;;;;;;;7.83;2.97;;;;;;;9.68;92.15;100732.13;5076162;28;20451;-70
2024/03/12 08:13:31;;;;;;;7.40;3.30;;;;;;;9.77;91.61;100731.19;5075790;28;20465;-70
2024/03/12 08:15:58;;;;;;;7.63;3.20;;;;;;;9.86;90.15;100742.97;5075890;28;20437;-70
2024/03/12 08:18:25;;;;;;;6.17;2.77;;;;;;;9.96;88.33;100744.75;5075839;28;20872;-70
2024/03/12 08:20:52;;;;;;;5.20;2.40;;;;;;;9.89;86.12;100743.50;5075699;28;20508;-70
2024/03/12 08:23:19;;;;;;;4.93;2.47;;;;;;;9.89;85.93;100738.88;5075372;28;21045;-70
2024/03/12 08:25:47;;;;;;;5.60;2.93;;;;;;;10.01;85.75;100741.16;5075301;28;20493;-67
2024/03/12 08:28:16;;;;;;;7.40;2.90;;;;;;;10.11;84.74;100741.78;5075708;28;20615;-67
2024/03/12 08:30:45;;;;;;;6.57;3.33;;;;;;;10.19;84.62;100740.34;5076154;28;20433;-68
2024/03/12 08:33:13;;;;;;;5.30;2.43;;;;;;;10.28;84.70;100748.63;5075716;28;20468;-67
2024/03/12 08:35:39;;;;;;;4.47;1.90;;;;;;;10.31;84.10;100748.84;5075950;28;20446;-67
2024/03/12 08:38:06;;;;;;;9.00;3.17;;;;;;;10.37;83.80;100751.47;5075464;28;20528;-67
2024/03/12 08:40:33;;;;;;;4.57;2.30;;;;;;;10.46;83.77;100742.38;5075247;28;20560;-67
2024/03/12 08:43:01;;;;;;;5.97;2.80;;;;;;;10.51;84.30;100749.59;5075634;28;20458;-67
2024/03/12 08:45:28;;;;;;;5.07;2.67;;;;;;;10.56;83.76;100750.31;5075259;28;20452;-67
2024/03/12 08:47:54;;;;;;;5.00;2.47;;;;;;;10.61;83.27;100761.06;5075252;28;20468;-67
2024/03/12 08:50:22;;;;;;;9.70;2.77;;;;;;;10.70;82.70;100763.88;5075273;28;20449;-67
2024/03/12 08:52:48;;;;;;;5.70;2.70;;;;;;;10.78;81.78;100755.09;5075133;28;20465;-67
2024/03/12 08:55:16;;;;;;;4.27;2.10;;;;;;;10.86;80.83;100759.81;5075405;28;20437;-67
2024/03/12 08:57:43;;;;;;;5.93;3.23;;;;;;;10.90;80.74;100761.94;5075143;28;20448;-67
2024/03/12 09:00:12;;;;;;;4.20;1.93;;;;;;;10.95;79.44;100753.72;5074035;28;20476;-68
2024/03/12 09:02:40;;;;;;;3.60;1.90;;;;;;;10.98;79.11;100759.34;5074918;28;20493;-67
2024/03/12 09:05:07;;;;;;;5.33;2.03;;;;;;;11.04;78.70;100766.28;5075026;28;20528;-67
2024/03/12 09:07:35;;;;;;;8.00;2.73;;;;;;;11.09;78.55;100768.88;5075143;28;20473;-68
2024/03/12 09:10:02;;;;;;;5.00;2.50;;;;;;;11.15;77.93;100769.59;5074519;28;20925;-67
2024/03/12 09:12:29;;;;;;;10.33;4.07;;;;;;;11.17;76.91;100766.59;5074716;28;20462;-68
2024/03/12 09:14:56;;;;;;;4.73;2.73;;;;;;;11.25;77.05;100774.03;5074773;28;20536;-69
2024/03/12 09:17:25;;;;;;;5.97;2.00;;;;;;;11.25;76.95;100779.47;5074385;28;20798;-69
2024/03/12 09:19:52;;;;;;;14.30;2.37;;;;;;;11.25;76.84;100774.03;5074609;28;20437;-69
2024/03/12 09:22:19;;;;;;;4.83;1.87;;;;;;;11.34;76.52;100774.94;5074454;28;20495;-69
2024/03/12 09:24:45;;;;;;;4.20;1.70;;;;;;;11.43;76.73;100772.31;5074726;28;20481;-69
2024/03/12 09:27:12;;;;;;;5.30;2.40;;;;;;;11.53;76.42;100763.97;5074256;28;20914;-69
2024/03/12 09:29:39;;;;;;;4.90;2.00;;;;;;;11.62;74.83;100775.72;5074962;28;20484;-69
2024/03/12 09:32:06;;;;;;;3.70;2.20;;;;;;;11.62;74.32;100776.53;5074600;28;20468;-69
2024/03/12 09:34:36;;;;;;;5.80;2.47;;;;;;;11.69;74.07;100780.75;5074149;28;20444;-69
2024/03/12 09:37:03;;;;;;;4.03;1.80;;;;;;;11.76;73.65;100776.50;5074766;28;20437;-69
2024/03/12 09:39:31;;;;;;;4.70;2.40;;;;;;;11.83;73.46;100774.22;5074346;28;20441;-69
2024/03/12 09:41:59;;;;;;;5.20;2.70;;;;;;;11.84;73.09;100773.09;5074105;28;20538;-69
2024/03/12 09:44:26;;;;;;;4.70;2.20;;;;;;;11.91;72.73;100772.69;5074445;28;20437;-69
2024/03/12 09:46:54;;;;;;;4.07;2.10;;;;;;;12.00;72.23;100779.00;5074078;28;20444;-69
2024/03/12 09:49:21;;;;;;;6.33;2.10;;;;;;;12.02;72.30;100776.78;5074076;28;20457;-69
2024/03/12 09:51:50;;;;;;;4.90;2.80;;;;;;;12.05;72.31;100781.59;5074016;28;20524;-69
2024/03/12 09:54:17;;;;;;;4.10;2.00;;;;;;;11.99;72.63;100774.66;5074023;28;20444;-69
2024/03/12 09:56:44;;;;;;;5.30;2.53;;;;;;;12.09;72.50;100781.81;5073961;28;20441;-69
2024/03/12 09:59:11;;;;;;;5.50;2.10;;;;;;;12.20;72.42;100779.66;5073925;28;20544;-69
2024/03/12 10:01:39;;;;;;;3.40;1.80;;;;;;;12.31;72.00;100778.31;5073851;28;20492;-69
2024/03/12 10:04:06;;;;;;;3.83;1.70;;;;;;;12.41;71.57;100783.50;5073786;28;20457;-69
2024/03/12 10:06:33;;;;;;;3.70;1.80;;;;;;;12.48;71.03;100783.84;5073528;28;20952;-69
2024/03/12 10:09:01;;;;;;;5.60;2.20;;;;;;;12.60;70.91;100786.03;5073844;28;20442;-69
2024/03/12 10:11:28;;;;;;;4.17;2.13;;;;;;;12.65;69.67;100782.38;5073663;28;20520;-69
2024/03/12 10:13:58;;;;;;;4.13;2.40;;;;;;;12.61;69.91;100788.41;5073815;28;20497;-69
2024/03/12 10:16:28;;;;;;;3.77;1.40;;;;;;;12.74;70.22;100786.75;5073625;28;20434;-69
2024/03/12 10:19:08;;;;;;;3.60;1.87;;;;;;;12.75;70.23;100788.38;5073633;28;20521;-69
2024/03/12 10:21:34;;;;;;;5.40;2.70;;;;;;;12.84;69.72;100783.78;5073692;28;20473;-70
2024/03/12 10:24:14;;;;;;;4.20;2.20;;;;;;;12.83;69.14;100784.88;5073580;28;20465;-69
2024/03/12 10:26:41;;;;;;;3.60;2.03;;;;;;;12.92;68.30;100786.84;5073254;28;20424;-69
2024/03/12 10:29:09;;;;;;;4.80;1.77;;;;;;;12.92;68.28;100790.38;5073581;28;20498;-69
2024/03/12 10:31:39;;;;;;;4.50;1.97;;;;;;;13.00;67.02;100794.25;5073217;28;20437;-69
2024/03/12 10:34:10;;;;;;;5.27;2.30;;;;;;;13.03;66.42;100785.47;5073539;28;20462;-69
2024/03/12 10:36:37;;;;;;;6.67;2.53;;;;;;;13.05;66.48;100780.53;5073648;28;20429;-69
2024/03/12 10:39:07;;;;;;;4.87;2.40;;;;;;;13.08;64.99;100793.50;5073549;28;20450;-69
2024/03/12 10:41:35;;;;;;;3.43;1.43;;;;;;;13.09;65.69;100792.38;5073022;28;20899;-69
2024/03/12 10:44:10;;;;;;;4.60;2.00;;;;;;;13.14;66.00;100781.34;5073304;28;20522;-69
2024/03/12 10:46:38;;;;;;;3.50;1.70;;;;;;;13.21;65.24;100781.72;5073167;28;20979;-69
2024/03/12 10:49:10;;;;;;;5.30;2.60;;;;;;;13.35;64.18;100789.81;5073343;28;20448;-69
2024/03/12 10:51:40;;;;;;;2.80;1.60;;;;;;;13.50;63.47;100788.56;5073115;28;20426;-69
2024/03/12 10:54:11;;;;;;;3.90;1.57;;;;;;;13.53;63.43;100787.94;5073007;28;20829;-69
2024/03/12 10:56:39;;;;;;;3.30;1.60;;;;;;;13.62;63.33;100783.31;5073593;28;20539;-69
2024/03/12 10:59:09;;;;;;;5.20;2.03;;;;;;;13.75;62.27;100782.41;5073009;28;20528;-69
2024/03/12 11:01:37;;;;;;;4.20;2.07;;;;;;;13.86;61.53;100783.72;5073063;28;20483;-69
2024/03/12 11:04:05;;;;;;;2.47;1.27;;;;;;;14.01;61.44;100785.16;5072866;28;20885;-69
2024/03/12 11:06:35;;;;;;;3.50;1.50;;;;;;;14.14;61.34;100786.13;5072961;28;20448;-69
2024/03/12 11:09:04;;;;;;;3.70;1.70;;;;;;;14.23;61.47;100786.94;5073264;28;20429;-69
2024/03/12 11:11:30;;;;;;;2.67;1.10;;;;;;;14.44;60.48;100791.75;5072803;28;20449;-69
2024/03/12 11:14:01;;;;;;;4.80;2.30;;;;;;;14.66;60.41;100782.63;5073051;28;20530;-69
2024/03/12 11:16:31;;;;;;;4.23;1.23;;;;;;;14.78;59.56;100785.47;5072878;28;20421;-69
2024/03/12 11:19:00;;;;;;;3.17;1.33;;;;;;;14.71;58.70;100780.53;5072769;28;20473;-69
2024/03/12 11:21:32;;;;;;;3.30;1.90;;;;;;;14.95;58.87;100784.63;5072974;28;20481;-69
2024/03/12 11:23:59;;;;;;;5.60;2.10;;;;;;;15.12;57.64;100787.31;5075741;28;20481;-68
2024/03/12 11:26:29;;;;;;;3.80;1.97;;;;;;;15.27;56.58;100786.78;5076537;28;20446;-68
2024/03/12 11:28:57;;;;;;;3.33;1.40;;;;;;;15.52;55.91;100792.44;5076592;28;20445;-72
2024/03/12 11:31:27;;;;;;;2.47;1.07;;;;;;;15.58;54.51;100789.19;5076466;28;20931;-69
2024/03/12 11:33:54;;;;;;;3.30;1.40;;;;;;;15.79;54.40;100796.63;5076680;28;20461;-69